sensor_id;sensor_type;location;lat;lon;timestamp;P1;durP1;ratioP1;P2;durP2;ratioP2
59115;SDS011;53564;51.930;4.640;2022-08-21T00:02:21;8.02;;;3.45;;
59115;SDS011;53564;51.930;4.640;2022-08-21T00:04:47;11.32;;;3.20;;
59115;SDS011;53564;51.930;4.640;2022-08-21T00:07:13;12.50;;;3.13;;
59115;SDS011;53564;51.930;4.640;2022-08-21T00:09:39;9.27;;;2.80;;
59115;SDS011;53564;51.930;4.640;2022-08-21T00:12:04;9.38;;;2.78;;
59115;SDS011;53564;51.930;4.640;2022-08-21T00:14:30;10.35;;;3.83;;
59115;SDS011;53564;51.930;4.640;2022-08-21T00:16:55;10.05;;;3.00;;
59115;SDS011;53564;51.930;4.640;2022-08-21T00:19:21;9.77;;;2.90;;
59115;SDS011;53564;51.930;4.640;2022-08-21T00:21:49;12.00;;;3.00;;
59115;SDS011;53564;51.930;4.640;2022-08-21T00:24:16;9.77;;;3.00;;
59115;SDS011;53564;51.930;4.640;2022-08-21T00:26:41;15.18;;;3.40;;
59115;SDS011;53564;51.930;4.640;2022-08-21T00:29:08;12.30;;;3.13;;
59115;SDS011;53564;51.930;4.640;2022-08-21T00:31:34;12.15;;;3.03;;
59115;SDS011;53564;51.930;4.640;2022-08-21T00:34:00;9.82;;;2.92;;
59115;SDS011;53564;51.930;4.640;2022-08-21T00:36:25;10.13;;;3.03;;
59115;SDS011;53564;51.930;4.640;2022-08-21T00:38:50;9.73;;;3.00;;
59115;SDS011;53564;51.930;4.640;2022-08-21T00:41:15;12.52;;;3.20;;
59115;SDS011;53564;51.930;4.640;2022-08-21T00:43:41;11.70;;;3.22;;
59115;SDS011;53564;51.930;4.640;2022-08-21T00:46:06;12.18;;;2.80;;
59115;SDS011;53564;51.930;4.640;2022-08-21T00:48:32;11.18;;;3.17;;
59115;SDS011;53564;51.930;4.640;2022-08-21T00:55:59;12.27;;;3.33;;
59115;SDS011;53564;51.930;4.640;2022-08-21T00:58:27;11.80;;;3.05;;
59115;SDS011;53564;51.930;4.640;2022-08-21T01:00:55;10.65;;;3.03;;
59115;SDS011;53564;51.930;4.640;2022-08-21T01:03:21;12.15;;;2.90;;
59115;SDS011;53564;51.930;4.640;2022-08-21T01:05:49;10.52;;;2.97;;
59115;SDS011;53564;51.930;4.640;2022-08-21T01:08:15;10.82;;;3.25;;
59115;SDS011;53564;51.930;4.640;2022-08-21T01:10:42;10.00;;;3.50;;
59115;SDS011;53564;51.930;4.640;2022-08-21T01:13:08;13.25;;;4.22;;
59115;SDS011;53564;51.930;4.640;2022-08-21T01:15:37;12.52;;;3.65;;
59115;SDS011;53564;51.930;4.640;2022-08-21T01:18:06;10.40;;;2.75;;
59115;SDS011;53564;51.930;4.640;2022-08-21T01:20:32;11.40;;;2.95;;
59115;SDS011;53564;51.930;4.640;2022-08-21T01:23:00;11.20;;;3.35;;
59115;SDS011;53564;51.930;4.640;2022-08-21T01:25:25;10.60;;;3.30;;
59115;SDS011;53564;51.930;4.640;2022-08-21T01:27:51;9.52;;;2.83;;
59115;SDS011;53564;51.930;4.640;2022-08-21T01:30:18;9.75;;;2.85;;
59115;SDS011;53564;51.930;4.640;2022-08-21T01:32:46;9.85;;;3.10;;
59115;SDS011;53564;51.930;4.640;2022-08-21T01:35:14;11.07;;;3.35;;
59115;SDS011;53564;51.930;4.640;2022-08-21T01:37:41;8.73;;;2.92;;
59115;SDS011;53564;51.930;4.640;2022-08-21T01:40:07;10.82;;;3.22;;
59115;SDS011;53564;51.930;4.640;2022-08-21T01:42:34;10.25;;;3.10;;
59115;SDS011;53564;51.930;4.640;2022-08-21T01:45:00;9.05;;;2.65;;
59115;SDS011;53564;51.930;4.640;2022-08-21T01:47:25;10.93;;;2.90;;
59115;SDS011;53564;51.930;4.640;2022-08-21T01:49:51;9.98;;;3.03;;
59115;SDS011;53564;51.930;4.640;2022-08-21T01:52:16;10.40;;;3.10;;
59115;SDS011;53564;51.930;4.640;2022-08-21T01:54:43;12.05;;;3.10;;
59115;SDS011;53564;51.930;4.640;2022-08-21T01:57:09;10.98;;;3.00;;
59115;SDS011;53564;51.930;4.640;2022-08-21T01:59:34;10.93;;;3.00;;
59115;SDS011;53564;51.930;4.640;2022-08-21T02:02:01;11.95;;;3.22;;
59115;SDS011;53564;51.930;4.640;2022-08-21T02:04:27;12.52;;;3.30;;
59115;SDS011;53564;51.930;4.640;2022-08-21T02:06:52;8.38;;;2.90;;
59115;SDS011;53564;51.930;4.640;2022-08-21T02:09:18;10.35;;;2.78;;
59115;SDS011;53564;51.930;4.640;2022-08-21T02:11:43;10.30;;;3.28;;
59115;SDS011;53564;51.930;4.640;2022-08-21T02:14:13;10.85;;;3.15;;
59115;SDS011;53564;51.930;4.640;2022-08-21T02:16:43;10.32;;;3.05;;
59115;SDS011;53564;51.930;4.640;2022-08-21T02:19:10;11.80;;;3.45;;
59115;SDS011;53564;51.930;4.640;2022-08-21T02:21:36;8.65;;;3.03;;
59115;SDS011;53564;51.930;4.640;2022-08-21T02:24:02;11.88;;;3.47;;
59115;SDS011;53564;51.930;4.640;2022-08-21T02:26:28;8.15;;;2.92;;
59115;SDS011;53564;51.930;4.640;2022-08-21T02:28:53;10.45;;;2.80;;
59115;SDS011;53564;51.930;4.640;2022-08-21T02:31:18;9.25;;;2.70;;
59115;SDS011;53564;51.930;4.640;2022-08-21T02:33:44;12.52;;;3.58;;
59115;SDS011;53564;51.930;4.640;2022-08-21T02:36:10;12.45;;;3.00;;
59115;SDS011;53564;51.930;4.640;2022-08-21T02:38:37;9.07;;;2.70;;
59115;SDS011;53564;51.930;4.640;2022-08-21T02:41:07;10.48;;;3.00;;
59115;SDS011;53564;51.930;4.640;2022-08-21T02:43:34;10.98;;;3.22;;
59115;SDS011;53564;51.930;4.640;2022-08-21T02:46:00;9.52;;;2.83;;
59115;SDS011;53564;51.930;4.640;2022-08-21T02:48:28;8.50;;;2.60;;
59115;SDS011;53564;51.930;4.640;2022-08-21T02:53:29;10.15;;;2.95;;
59115;SDS011;53564;51.930;4.640;2022-08-21T02:55:56;10.55;;;2.67;;
59115;SDS011;53564;51.930;4.640;2022-08-21T02:58:24;10.45;;;3.08;;
59115;SDS011;53564;51.930;4.640;2022-08-21T03:00:52;10.35;;;2.95;;
59115;SDS011;53564;51.930;4.640;2022-08-21T03:03:18;9.45;;;3.42;;
59115;SDS011;53564;51.930;4.640;2022-08-21T03:05:43;10.35;;;2.90;;
59115;SDS011;53564;51.930;4.640;2022-08-21T03:08:10;10.32;;;3.30;;
59115;SDS011;53564;51.930;4.640;2022-08-21T03:10:38;12.45;;;3.25;;
59115;SDS011;53564;51.930;4.640;2022-08-21T03:13:06;9.68;;;3.03;;
59115;SDS011;53564;51.930;4.640;2022-08-21T03:15:32;10.40;;;2.85;;
59115;SDS011;53564;51.930;4.640;2022-08-21T03:17:57;9.80;;;2.90;;
59115;SDS011;53564;51.930;4.640;2022-08-21T03:20:24;11.65;;;3.53;;
59115;SDS011;53564;51.930;4.640;2022-08-21T03:22:52;10.07;;;3.10;;
59115;SDS011;53564;51.930;4.640;2022-08-21T03:25:18;11.93;;;2.88;;
59115;SDS011;53564;51.930;4.640;2022-08-21T03:27:43;9.98;;;3.38;;
59115;SDS011;53564;51.930;4.640;2022-08-21T03:30:09;9.13;;;3.00;;
59115;SDS011;53564;51.930;4.640;2022-08-21T03:32:35;11.18;;;2.88;;
59115;SDS011;53564;51.930;4.640;2022-08-21T03:35:01;14.15;;;2.92;;
59115;SDS011;53564;51.930;4.640;2022-08-21T03:37:27;9.77;;;2.70;;
59115;SDS011;53564;51.930;4.640;2022-08-21T03:39:52;12.65;;;3.00;;
59115;SDS011;53564;51.930;4.640;2022-08-21T03:42:17;12.75;;;2.70;;
59115;SDS011;53564;51.930;4.640;2022-08-21T03:44:43;10.70;;;3.08;;
59115;SDS011;53564;51.930;4.640;2022-08-21T03:47:08;11.23;;;2.90;;
59115;SDS011;53564;51.930;4.640;2022-08-21T03:49:34;9.63;;;2.80;;
59115;SDS011;53564;51.930;4.640;2022-08-21T03:52:00;10.18;;;2.95;;
59115;SDS011;53564;51.930;4.640;2022-08-21T03:54:25;10.98;;;3.08;;
59115;SDS011;53564;51.930;4.640;2022-08-21T03:56:50;11.80;;;3.40;;
59115;SDS011;53564;51.930;4.640;2022-08-21T03:59:16;9.30;;;2.78;;
59115;SDS011;53564;51.930;4.640;2022-08-21T04:01:55;9.02;;;2.88;;
59115;SDS011;53564;51.930;4.640;2022-08-21T04:04:23;11.25;;;2.78;;
59115;SDS011;53564;51.930;4.640;2022-08-21T04:06:49;10.80;;;2.95;;
59115;SDS011;53564;51.930;4.640;2022-08-21T04:09:15;13.27;;;3.17;;
59115;SDS011;53564;51.930;4.640;2022-08-21T04:11:41;11.73;;;3.25;;
59115;SDS011;53564;51.930;4.640;2022-08-21T04:14:06;10.40;;;2.58;;
59115;SDS011;53564;51.930;4.640;2022-08-21T04:16:31;10.15;;;2.90;;
59115;SDS011;53564;51.930;4.640;2022-08-21T04:18:56;9.82;;;2.60;;
59115;SDS011;53564;51.930;4.640;2022-08-21T04:21:22;9.63;;;2.88;;
59115;SDS011;53564;51.930;4.640;2022-08-21T04:23:48;9.65;;;2.65;;
59115;SDS011;53564;51.930;4.640;2022-08-21T04:26:13;11.98;;;3.13;;
59115;SDS011;53564;51.930;4.640;2022-08-21T04:28:39;14.48;;;3.10;;
59115;SDS011;53564;51.930;4.640;2022-08-21T04:31:04;13.63;;;3.00;;
59115;SDS011;53564;51.930;4.640;2022-08-21T04:33:29;12.75;;;3.53;;
59115;SDS011;53564;51.930;4.640;2022-08-21T04:35:54;11.68;;;4.30;;
59115;SDS011;53564;51.930;4.640;2022-08-21T04:38:20;10.98;;;3.20;;
59115;SDS011;53564;51.930;4.640;2022-08-21T04:40:45;10.80;;;3.20;;
59115;SDS011;53564;51.930;4.640;2022-08-21T04:43:12;13.90;;;3.30;;
59115;SDS011;53564;51.930;4.640;2022-08-21T04:45:39;14.35;;;3.75;;
59115;SDS011;53564;51.930;4.640;2022-08-21T04:48:07;11.88;;;3.63;;
59115;SDS011;53564;51.930;4.640;2022-08-21T04:53:18;11.82;;;3.83;;
59115;SDS011;53564;51.930;4.640;2022-08-21T04:55:47;13.52;;;3.90;;
59115;SDS011;53564;51.930;4.640;2022-08-21T04:58:13;11.75;;;3.60;;
59115;SDS011;53564;51.930;4.640;2022-08-21T05:00:43;16.17;;;3.83;;
59115;SDS011;53564;51.930;4.640;2022-08-21T05:03:09;10.82;;;3.80;;
59115;SDS011;53564;51.930;4.640;2022-08-21T05:05:36;14.40;;;4.05;;
59115;SDS011;53564;51.930;4.640;2022-08-21T05:08:02;13.32;;;3.60;;
59115;SDS011;53564;51.930;4.640;2022-08-21T05:10:28;15.20;;;4.15;;
59115;SDS011;53564;51.930;4.640;2022-08-21T05:12:56;10.82;;;3.67;;
59115;SDS011;53564;51.930;4.640;2022-08-21T05:15:21;17.10;;;5.45;;
59115;SDS011;53564;51.930;4.640;2022-08-21T05:17:46;18.52;;;4.80;;
59115;SDS011;53564;51.930;4.640;2022-08-21T05:20:12;14.20;;;4.45;;
59115;SDS011;53564;51.930;4.640;2022-08-21T05:22:38;13.95;;;4.28;;
59115;SDS011;53564;51.930;4.640;2022-08-21T05:25:05;11.07;;;3.63;;
59115;SDS011;53564;51.930;4.640;2022-08-21T05:27:32;13.20;;;3.88;;
59115;SDS011;53564;51.930;4.640;2022-08-21T05:29:57;12.32;;;4.07;;
59115;SDS011;53564;51.930;4.640;2022-08-21T05:32:23;17.83;;;4.75;;
59115;SDS011;53564;51.930;4.640;2022-08-21T05:34:48;14.55;;;4.38;;
59115;SDS011;53564;51.930;4.640;2022-08-21T05:37:13;12.02;;;4.18;;
59115;SDS011;53564;51.930;4.640;2022-08-21T05:39:39;14.13;;;4.57;;
59115;SDS011;53564;51.930;4.640;2022-08-21T05:42:05;15.98;;;4.07;;
59115;SDS011;53564;51.930;4.640;2022-08-21T05:44:30;16.38;;;4.72;;
59115;SDS011;53564;51.930;4.640;2022-08-21T05:47:01;16.33;;;4.13;;
59115;SDS011;53564;51.930;4.640;2022-08-21T05:49:28;14.00;;;3.90;;
59115;SDS011;53564;51.930;4.640;2022-08-21T05:51:53;13.85;;;4.10;;
59115;SDS011;53564;51.930;4.640;2022-08-21T05:54:18;13.52;;;3.58;;
59115;SDS011;53564;51.930;4.640;2022-08-21T05:56:43;14.00;;;4.22;;
59115;SDS011;53564;51.930;4.640;2022-08-21T05:59:09;13.07;;;3.92;;
59115;SDS011;53564;51.930;4.640;2022-08-21T06:01:35;10.88;;;3.80;;
59115;SDS011;53564;51.930;4.640;2022-08-21T06:04:01;11.77;;;4.35;;
59115;SDS011;53564;51.930;4.640;2022-08-21T06:06:26;12.48;;;3.58;;
59115;SDS011;53564;51.930;4.640;2022-08-21T06:08:51;14.55;;;4.13;;
59115;SDS011;53564;51.930;4.640;2022-08-21T06:11:18;15.98;;;4.10;;
59115;SDS011;53564;51.930;4.640;2022-08-21T06:13:43;15.45;;;4.03;;
59115;SDS011;53564;51.930;4.640;2022-08-21T06:16:09;11.98;;;3.50;;
59115;SDS011;53564;51.930;4.640;2022-08-21T06:18:39;17.48;;;4.40;;
59115;SDS011;53564;51.930;4.640;2022-08-21T06:21:05;14.75;;;3.85;;
59115;SDS011;53564;51.930;4.640;2022-08-21T06:23:31;10.73;;;3.35;;
59115;SDS011;53564;51.930;4.640;2022-08-21T06:25:57;14.52;;;3.83;;
59115;SDS011;53564;51.930;4.640;2022-08-21T06:28:23;17.75;;;3.75;;
59115;SDS011;53564;51.930;4.640;2022-08-21T06:30:48;13.18;;;3.58;;
59115;SDS011;53564;51.930;4.640;2022-08-21T06:33:14;13.80;;;3.85;;
59115;SDS011;53564;51.930;4.640;2022-08-21T06:35:39;14.10;;;4.43;;
59115;SDS011;53564;51.930;4.640;2022-08-21T06:38:04;19.65;;;4.40;;
59115;SDS011;53564;51.930;4.640;2022-08-21T06:40:30;14.93;;;3.70;;
59115;SDS011;53564;51.930;4.640;2022-08-21T06:42:57;16.95;;;3.63;;
59115;SDS011;53564;51.930;4.640;2022-08-21T06:45:23;14.32;;;4.05;;
59115;SDS011;53564;51.930;4.640;2022-08-21T06:47:49;15.30;;;3.72;;
59115;SDS011;53564;51.930;4.640;2022-08-21T06:50:14;18.00;;;3.70;;
59115;SDS011;53564;51.930;4.640;2022-08-21T06:52:39;16.13;;;4.22;;
59115;SDS011;53564;51.930;4.640;2022-08-21T06:55:06;16.02;;;4.18;;
59115;SDS011;53564;51.930;4.640;2022-08-21T06:57:33;16.88;;;4.13;;
59115;SDS011;53564;51.930;4.640;2022-08-21T06:59:59;15.55;;;3.70;;
59115;SDS011;53564;51.930;4.640;2022-08-21T07:02:24;19.40;;;4.60;;
59115;SDS011;53564;51.930;4.640;2022-08-21T07:04:50;14.10;;;4.00;;
59115;SDS011;53564;51.930;4.640;2022-08-21T07:07:15;18.33;;;4.13;;
59115;SDS011;53564;51.930;4.640;2022-08-21T07:09:41;14.27;;;4.22;;
59115;SDS011;53564;51.930;4.640;2022-08-21T07:12:06;14.32;;;3.90;;
59115;SDS011;53564;51.930;4.640;2022-08-21T07:14:32;14.73;;;4.43;;
59115;SDS011;53564;51.930;4.640;2022-08-21T07:16:57;15.05;;;3.67;;
59115;SDS011;53564;51.930;4.640;2022-08-21T07:19:23;12.27;;;4.15;;
59115;SDS011;53564;51.930;4.640;2022-08-21T07:21:48;14.52;;;4.15;;
59115;SDS011;53564;51.930;4.640;2022-08-21T07:24:13;16.35;;;4.57;;
59115;SDS011;53564;51.930;4.640;2022-08-21T07:26:39;15.38;;;3.95;;
59115;SDS011;53564;51.930;4.640;2022-08-21T07:29:04;12.43;;;3.40;;
59115;SDS011;53564;51.930;4.640;2022-08-21T07:31:29;13.15;;;3.95;;
59115;SDS011;53564;51.930;4.640;2022-08-21T07:33:57;18.42;;;3.70;;
59115;SDS011;53564;51.930;4.640;2022-08-21T07:36:22;15.70;;;4.22;;
59115;SDS011;53564;51.930;4.640;2022-08-21T07:38:48;14.55;;;4.72;;
59115;SDS011;53564;51.930;4.640;2022-08-21T07:41:15;16.52;;;4.15;;
59115;SDS011;53564;51.930;4.640;2022-08-21T07:43:42;19.15;;;4.55;;
59115;SDS011;53564;51.930;4.640;2022-08-21T07:46:09;14.40;;;3.92;;
59115;SDS011;53564;51.930;4.640;2022-08-21T07:48:34;17.13;;;4.05;;
59115;SDS011;53564;51.930;4.640;2022-08-21T07:51:01;14.70;;;3.70;;
59115;SDS011;53564;51.930;4.640;2022-08-21T07:53:30;16.15;;;4.65;;
59115;SDS011;53564;51.930;4.640;2022-08-21T07:55:58;15.18;;;4.30;;
59115;SDS011;53564;51.930;4.640;2022-08-21T07:58:24;15.18;;;3.67;;
59115;SDS011;53564;51.930;4.640;2022-08-21T08:00:49;14.80;;;4.00;;
59115;SDS011;53564;51.930;4.640;2022-08-21T08:03:14;13.40;;;3.63;;
59115;SDS011;53564;51.930;4.640;2022-08-21T08:05:40;14.55;;;4.35;;
59115;SDS011;53564;51.930;4.640;2022-08-21T08:08:05;11.73;;;3.58;;
59115;SDS011;53564;51.930;4.640;2022-08-21T08:10:30;10.70;;;3.58;;
59115;SDS011;53564;51.930;4.640;2022-08-21T08:12:55;14.10;;;3.70;;
59115;SDS011;53564;51.930;4.640;2022-08-21T08:15:22;15.60;;;4.30;;
59115;SDS011;53564;51.930;4.640;2022-08-21T08:17:49;15.05;;;4.18;;
59115;SDS011;53564;51.930;4.640;2022-08-21T08:20:15;12.77;;;3.92;;
59115;SDS011;53564;51.930;4.640;2022-08-21T08:22:43;15.20;;;4.20;;
59115;SDS011;53564;51.930;4.640;2022-08-21T08:25:09;14.68;;;3.80;;
59115;SDS011;53564;51.930;4.640;2022-08-21T08:27:36;17.17;;;4.13;;
59115;SDS011;53564;51.930;4.640;2022-08-21T08:30:02;12.65;;;3.55;;
59115;SDS011;53564;51.930;4.640;2022-08-21T08:32:29;14.45;;;3.88;;
59115;SDS011;53564;51.930;4.640;2022-08-21T08:34:54;12.93;;;3.40;;
59115;SDS011;53564;51.930;4.640;2022-08-21T08:37:20;11.18;;;3.42;;
59115;SDS011;53564;51.930;4.640;2022-08-21T08:39:45;13.70;;;3.15;;
59115;SDS011;53564;51.930;4.640;2022-08-21T08:42:11;13.23;;;3.38;;
59115;SDS011;53564;51.930;4.640;2022-08-21T08:44:40;18.25;;;3.92;;
59115;SDS011;53564;51.930;4.640;2022-08-21T08:47:06;13.13;;;3.33;;
59115;SDS011;53564;51.930;4.640;2022-08-21T08:49:37;13.65;;;3.45;;
59115;SDS011;53564;51.930;4.640;2022-08-21T08:52:09;11.35;;;3.03;;
59115;SDS011;53564;51.930;4.640;2022-08-21T08:55:03;16.27;;;3.42;;
59115;SDS011;53564;51.930;4.640;2022-08-21T08:57:32;12.43;;;2.80;;
59115;SDS011;53564;51.930;4.640;2022-08-21T09:00:00;13.40;;;3.10;;
59115;SDS011;53564;51.930;4.640;2022-08-21T09:02:28;13.85;;;3.22;;
59115;SDS011;53564;51.930;4.640;2022-08-21T09:04:54;13.45;;;3.28;;
59115;SDS011;53564;51.930;4.640;2022-08-21T09:10:11;11.43;;;3.13;;
59115;SDS011;53564;51.930;4.640;2022-08-21T09:12:56;10.98;;;2.95;;
59115;SDS011;53564;51.930;4.640;2022-08-21T09:18:47;20.50;;;3.33;;
59115;SDS011;53564;51.930;4.640;2022-08-21T09:24:31;9.05;;;2.65;;
59115;SDS011;53564;51.930;4.640;2022-08-21T09:27:07;14.18;;;3.70;;
59115;SDS011;53564;51.930;4.640;2022-08-21T09:29:38;14.80;;;3.05;;
59115;SDS011;53564;51.930;4.640;2022-08-21T09:32:09;12.32;;;2.85;;
59115;SDS011;53564;51.930;4.640;2022-08-21T09:34:39;12.13;;;3.15;;
59115;SDS011;53564;51.930;4.640;2022-08-21T09:37:05;14.27;;;3.17;;
59115;SDS011;53564;51.930;4.640;2022-08-21T09:39:42;17.13;;;3.30;;
59115;SDS011;53564;51.930;4.640;2022-08-21T09:42:08;11.20;;;2.88;;
59115;SDS011;53564;51.930;4.640;2022-08-21T09:44:38;15.90;;;3.75;;
59115;SDS011;53564;51.930;4.640;2022-08-21T09:47:08;19.00;;;3.63;;
59115;SDS011;53564;51.930;4.640;2022-08-21T09:49:36;14.82;;;3.17;;
59115;SDS011;53564;51.930;4.640;2022-08-21T09:52:03;13.85;;;3.38;;
59115;SDS011;53564;51.930;4.640;2022-08-21T09:54:43;18.90;;;3.63;;
59115;SDS011;53564;51.930;4.640;2022-08-21T09:59:54;11.32;;;3.20;;
59115;SDS011;53564;51.930;4.640;2022-08-21T10:04:52;14.00;;;3.20;;
59115;SDS011;53564;51.930;4.640;2022-08-21T10:07:20;7.88;;;2.58;;
59115;SDS011;53564;51.930;4.640;2022-08-21T10:09:57;12.30;;;2.72;;
59115;SDS011;53564;51.930;4.640;2022-08-21T10:12:26;10.10;;;2.70;;
59115;SDS011;53564;51.930;4.640;2022-08-21T10:20:37;12.38;;;2.63;;
59115;SDS011;53564;51.930;4.640;2022-08-21T10:23:28;9.23;;;2.40;;
59115;SDS011;53564;51.930;4.640;2022-08-21T10:29:12;9.52;;;2.58;;
59115;SDS011;53564;51.930;4.640;2022-08-21T10:31:56;14.65;;;2.67;;
59115;SDS011;53564;51.930;4.640;2022-08-21T10:38:40;10.02;;;2.40;;
59115;SDS011;53564;51.930;4.640;2022-08-21T10:40:54;7.07;;;2.40;;
59115;SDS011;53564;51.930;4.640;2022-08-21T10:43:35;9.95;;;2.40;;
59115;SDS011;53564;51.930;4.640;2022-08-21T10:46:31;9.07;;;2.40;;
59115;SDS011;53564;51.930;4.640;2022-08-21T10:52:09;14.85;;;2.70;;
59115;SDS011;53564;51.930;4.640;2022-08-21T11:00:21;13.38;;;2.67;;
59115;SDS011;53564;51.930;4.640;2022-08-21T11:05:37;8.73;;;2.40;;
59115;SDS011;53564;51.930;4.640;2022-08-21T11:08:11;11.63;;;2.72;;
59115;SDS011;53564;51.930;4.640;2022-08-21T11:10:44;9.23;;;2.35;;
59115;SDS011;53564;51.930;4.640;2022-08-21T11:19:04;10.55;;;2.67;;
59115;SDS011;53564;51.930;4.640;2022-08-21T11:29:59;5.55;;;2.15;;
59115;SDS011;53564;51.930;4.640;2022-08-21T11:32:31;11.07;;;2.92;;
59115;SDS011;53564;51.930;4.640;2022-08-21T11:54:57;7.20;;;1.98;;
59115;SDS011;53564;51.930;4.640;2022-08-21T12:00:04;11.32;;;2.70;;
59115;SDS011;53564;51.930;4.640;2022-08-21T12:02:35;7.30;;;2.20;;
59115;SDS011;53564;51.930;4.640;2022-08-21T12:05:05;11.27;;;2.42;;
59115;SDS011;53564;51.930;4.640;2022-08-21T12:07:40;7.00;;;2.20;;
59115;SDS011;53564;51.930;4.640;2022-08-21T12:10:08;9.15;;;2.42;;
59115;SDS011;53564;51.930;4.640;2022-08-21T12:12:45;8.95;;;2.40;;
59115;SDS011;53564;51.930;4.640;2022-08-21T12:17:40;11.55;;;2.47;;
59115;SDS011;53564;51.930;4.640;2022-08-21T12:20:18;8.65;;;2.50;;
59115;SDS011;53564;51.930;4.640;2022-08-21T12:22:49;9.35;;;2.40;;
59115;SDS011;53564;51.930;4.640;2022-08-21T12:25:18;10.93;;;2.50;;
59115;SDS011;53564;51.930;4.640;2022-08-21T12:30:23;7.40;;;2.58;;
59115;SDS011;53564;51.930;4.640;2022-08-21T12:33:03;10.13;;;2.47;;
59115;SDS011;53564;51.930;4.640;2022-08-21T12:35:37;11.85;;;3.20;;
59115;SDS011;53564;51.930;4.640;2022-08-21T12:38:25;9.70;;;2.47;;
59115;SDS011;53564;51.930;4.640;2022-08-21T12:40:55;8.90;;;2.90;;
59115;SDS011;53564;51.930;4.640;2022-08-21T12:43:34;10.40;;;2.53;;
59115;SDS011;53564;51.930;4.640;2022-08-21T12:46:04;9.38;;;2.58;;
59115;SDS011;53564;51.930;4.640;2022-08-21T12:48:35;7.43;;;2.25;;
59115;SDS011;53564;51.930;4.640;2022-08-21T12:51:16;12.15;;;4.75;;
59115;SDS011;53564;51.930;4.640;2022-08-21T12:56:18;11.48;;;2.67;;
59115;SDS011;53564;51.930;4.640;2022-08-21T12:58:55;8.73;;;2.40;;
59115;SDS011;53564;51.930;4.640;2022-08-21T13:01:28;6.85;;;2.25;;
59115;SDS011;53564;51.930;4.640;2022-08-21T13:04:00;6.43;;;2.13;;
59115;SDS011;53564;51.930;4.640;2022-08-21T13:06:29;8.95;;;2.28;;
59115;SDS011;53564;51.930;4.640;2022-08-21T13:08:58;7.00;;;2.30;;
59115;SDS011;53564;51.930;4.640;2022-08-21T13:11:31;8.77;;;2.20;;
59115;SDS011;53564;51.930;4.640;2022-08-21T13:13:57;9.25;;;2.55;;
59115;SDS011;53564;51.930;4.640;2022-08-21T13:16:27;7.57;;;2.17;;
59115;SDS011;53564;51.930;4.640;2022-08-21T13:19:01;8.23;;;2.00;;
59115;SDS011;53564;51.930;4.640;2022-08-21T13:21:31;8.60;;;2.08;;
59115;SDS011;53564;51.930;4.640;2022-08-21T13:24:21;9.43;;;2.42;;
59115;SDS011;53564;51.930;4.640;2022-08-21T13:26:47;6.90;;;1.92;;
59115;SDS011;53564;51.930;4.640;2022-08-21T13:29:14;7.45;;;2.25;;
59115;SDS011;53564;51.930;4.640;2022-08-21T13:31:47;8.57;;;2.50;;
59115;SDS011;53564;51.930;4.640;2022-08-21T13:34:18;9.27;;;2.42;;
59115;SDS011;53564;51.930;4.640;2022-08-21T13:36:45;6.85;;;2.17;;
59115;SDS011;53564;51.930;4.640;2022-08-21T13:39:14;7.95;;;2.10;;
59115;SDS011;53564;51.930;4.640;2022-08-21T13:41:44;8.05;;;2.20;;
59115;SDS011;53564;51.930;4.640;2022-08-21T13:44:18;9.90;;;2.58;;
59115;SDS011;53564;51.930;4.640;2022-08-21T13:46:46;8.60;;;2.13;;
59115;SDS011;53564;51.930;4.640;2022-08-21T13:49:15;7.55;;;2.05;;
59115;SDS011;53564;51.930;4.640;2022-08-21T13:51:42;7.75;;;2.20;;
59115;SDS011;53564;51.930;4.640;2022-08-21T13:54:23;7.53;;;1.95;;
59115;SDS011;53564;51.930;4.640;2022-08-21T13:56:51;8.27;;;2.43;;
59115;SDS011;53564;51.930;4.640;2022-08-21T13:59:28;10.38;;;2.60;;
59115;SDS011;53564;51.930;4.640;2022-08-21T14:01:57;9.65;;;2.20;;
59115;SDS011;53564;51.930;4.640;2022-08-21T14:04:35;8.98;;;2.40;;
59115;SDS011;53564;51.930;4.640;2022-08-21T14:07:13;7.30;;;2.13;;
59115;SDS011;53564;51.930;4.640;2022-08-21T14:09:42;9.23;;;2.13;;
59115;SDS011;53564;51.930;4.640;2022-08-21T14:12:13;8.52;;;2.03;;
59115;SDS011;53564;51.930;4.640;2022-08-21T14:14:41;7.95;;;1.80;;
59115;SDS011;53564;51.930;4.640;2022-08-21T14:17:09;9.40;;;2.40;;
59115;SDS011;53564;51.930;4.640;2022-08-21T14:19:43;8.45;;;2.10;;
59115;SDS011;53564;51.930;4.640;2022-08-21T14:22:37;10.82;;;2.03;;
59115;SDS011;53564;51.930;4.640;2022-08-21T14:25:05;10.32;;;2.35;;
59115;SDS011;53564;51.930;4.640;2022-08-21T14:27:36;7.82;;;2.63;;
59115;SDS011;53564;51.930;4.640;2022-08-21T14:30:12;7.60;;;2.15;;
59115;SDS011;53564;51.930;4.640;2022-08-21T14:32:44;7.40;;;2.08;;
59115;SDS011;53564;51.930;4.640;2022-08-21T14:35:13;12.57;;;2.95;;
59115;SDS011;53564;51.930;4.640;2022-08-21T14:37:42;9.27;;;2.65;;
59115;SDS011;53564;51.930;4.640;2022-08-21T14:40:09;9.55;;;2.40;;
59115;SDS011;53564;51.930;4.640;2022-08-21T14:42:35;12.45;;;2.38;;
59115;SDS011;53564;51.930;4.640;2022-08-21T14:45:05;10.15;;;2.38;;
59115;SDS011;53564;51.930;4.640;2022-08-21T14:47:38;10.30;;;2.53;;
59115;SDS011;53564;51.930;4.640;2022-08-21T14:50:03;9.65;;;2.85;;
59115;SDS011;53564;51.930;4.640;2022-08-21T14:52:29;8.57;;;2.70;;
59115;SDS011;53564;51.930;4.640;2022-08-21T14:54:54;12.77;;;2.45;;
59115;SDS011;53564;51.930;4.640;2022-08-21T14:57:20;8.98;;;2.45;;
59115;SDS011;53564;51.930;4.640;2022-08-21T14:59:45;13.10;;;2.70;;
59115;SDS011;53564;51.930;4.640;2022-08-21T15:02:10;10.73;;;2.65;;
59115;SDS011;53564;51.930;4.640;2022-08-21T15:04:36;13.43;;;2.95;;
59115;SDS011;53564;51.930;4.640;2022-08-21T15:07:02;10.63;;;2.40;;
59115;SDS011;53564;51.930;4.640;2022-08-21T15:09:27;8.50;;;2.50;;
59115;SDS011;53564;51.930;4.640;2022-08-21T15:11:53;11.13;;;2.58;;
59115;SDS011;53564;51.930;4.640;2022-08-21T15:14:23;11.20;;;3.97;;
59115;SDS011;53564;51.930;4.640;2022-08-21T15:16:52;10.30;;;2.90;;
59115;SDS011;53564;51.930;4.640;2022-08-21T15:19:17;11.50;;;2.92;;
59115;SDS011;53564;51.930;4.640;2022-08-21T15:21:43;10.77;;;2.67;;
59115;SDS011;53564;51.930;4.640;2022-08-21T15:24:08;7.45;;;2.20;;
59115;SDS011;53564;51.930;4.640;2022-08-21T15:26:34;10.63;;;2.50;;
59115;SDS011;53564;51.930;4.640;2022-08-21T15:29:00;9.35;;;2.47;;
59115;SDS011;53564;51.930;4.640;2022-08-21T15:31:26;10.00;;;2.72;;
59115;SDS011;53564;51.930;4.640;2022-08-21T15:33:52;12.95;;;3.03;;
59115;SDS011;53564;51.930;4.640;2022-08-21T15:36:17;13.50;;;3.10;;
59115;SDS011;53564;51.930;4.640;2022-08-21T15:38:43;10.10;;;2.55;;
59115;SDS011;53564;51.930;4.640;2022-08-21T15:41:10;9.38;;;2.47;;
59115;SDS011;53564;51.930;4.640;2022-08-21T15:43:54;9.52;;;2.80;;
59115;SDS011;53564;51.930;4.640;2022-08-21T15:48:45;8.32;;;3.63;;
59115;SDS011;53564;51.930;4.640;2022-08-21T15:51:11;12.18;;;2.90;;
59115;SDS011;53564;51.930;4.640;2022-08-21T15:53:36;14.77;;;3.72;;
59115;SDS011;53564;51.930;4.640;2022-08-21T15:56:04;11.00;;;2.70;;
59115;SDS011;53564;51.930;4.640;2022-08-21T15:58:31;13.05;;;3.15;;
59115;SDS011;53564;51.930;4.640;2022-08-21T16:00:58;10.48;;;2.70;;
59115;SDS011;53564;51.930;4.640;2022-08-21T16:03:25;11.85;;;2.80;;
59115;SDS011;53564;51.930;4.640;2022-08-21T16:05:51;12.35;;;2.65;;
59115;SDS011;53564;51.930;4.640;2022-08-21T16:08:18;9.23;;;2.60;;
59115;SDS011;53564;51.930;4.640;2022-08-21T16:10:44;10.77;;;2.80;;
59115;SDS011;53564;51.930;4.640;2022-08-21T16:13:20;12.85;;;2.97;;
59115;SDS011;53564;51.930;4.640;2022-08-21T16:15:50;9.85;;;2.65;;
59115;SDS011;53564;51.930;4.640;2022-08-21T16:18:17;10.63;;;2.75;;
59115;SDS011;53564;51.930;4.640;2022-08-21T16:20:43;13.13;;;2.92;;